Time;durP1;ratioP1;P1;durP2;ratioP2;P2;SDS_P1;SDS_P2;PMS_P1;PMS_P2;Temp;Humidity;BMP_temperature;BMP_pressure;BME280_temperature;BME280_humidity;BME280_pressure;Samples;Min_cycle;Max_cycle;Signal;HPM_P1;HPM_P2
2023/11/15 00:00:00;;;;;;;;;;;;;;;11.28;100.00;100758.91;5033276;28;19924;-39
2023/11/15 00:02:25;;;;;;;;;;;;;;;11.28;100.00;100762.44;5035877;28;19923;-40
2023/11/15 00:04:50;;;;;;;;;;;;;;;11.28;100.00;100753.50;5040546;28;19971;-40
2023/11/15 00:07:15;;;;;;;;;;;;;;;11.26;100.00;100763.63;5042017;28;19923;-40
2023/11/15 00:09:41;;;;;;;;;;;;;;;11.23;100.00;100769.41;5048008;28;19952;-40
2023/11/15 00:12:06;;;;;;;;;;;;;;;11.24;100.00;100762.97;5037716;28;19971;-40
2023/11/15 00:14:32;;;;;;;;;;;;;;;11.26;100.00;100763.63;5036674;28;19917;-41
2023/11/15 00:16:57;;;;;;;;;;;;;;;11.27;100.00;100758.06;5054678;28;20066;-40
2023/11/15 00:19:23;;;;;;;;;;;;;;;11.22;100.00;100771.28;5060026;28;19924;-41
2023/11/15 00:21:49;;;;;;;;;;;;;;;11.14;100.00;100766.81;5058119;28;20395;-39
2023/11/15 00:24:14;;;;;;;;;;;;;;;11.09;100.00;100774.63;5057698;28;19913;-41
2023/11/15 00:26:39;;;;;;;;;;;;;;;11.04;100.00;100777.03;5056531;28;19986;-40
2023/11/15 00:29:05;;;;;;;;;;;;;;;11.03;100.00;100783.44;5037142;28;19920;-40
2023/11/15 00:31:31;;;;;;;;;;;;;;;11.04;100.00;100782.44;5037148;28;19920;-40
2023/11/15 00:33:57;;;;;;;;;;;;;;;11.01;100.00;100777.41;5045360;28;19909;-40
2023/11/15 00:36:23;;;;;;;;;;;;;;;10.97;100.00;100787.72;5056833;28;19946;-40
2023/11/15 00:38:51;;;;;;;;;;;;;;;10.97;100.00;100790.41;5041544;28;19917;-39
2023/11/15 00:41:16;;;;;;;;;;;;;;;10.94;100.00;100790.78;5035853;28;19916;-40
2023/11/15 00:43:42;;;;;;;;;;;;;;;10.95;100.00;100788.91;5035924;28;20006;-41
2023/11/15 00:46:12;;;;;;;;;;;;;;;10.93;100.00;100793.66;5023977;28;19994;-40
2023/11/15 00:48:37;;;;;;;;;;;;;;;10.92;100.00;100798.19;5055435;28;19917;-40
2023/11/15 00:51:03;;;;;;;;;;;;;;;10.94;100.00;100792.63;5055469;28;19923;-40
2023/11/15 00:53:28;;;;;;;;;;;;;;;10.97;100.00;100805.72;5055277;28;19921;-40
2023/11/15 00:55:53;;;;;;;;;;;;;;;10.98;100.00;100815.50;5053788;28;20012;-40
2023/11/15 00:58:18;;;;;;;;;;;;;;;10.96;100.00;100812.16;5053825;28;19955;-41
2023/11/15 01:00:48;;;;;;;;;;;;;;;10.97;100.00;100821.88;5047667;28;19917;-42
2023/11/15 01:03:25;;;;;;;;;;;;;;;10.98;100.00;100815.50;5048990;28;20204;-40
2023/11/15 01:05:50;;;;;;;;;;;;;;;10.99;100.00;100818.00;5043624;28;19916;-40
2023/11/15 01:08:16;;;;;;;;;;;;;;;10.98;100.00;100818.19;5043861;28;20032;-41
2023/11/15 01:10:41;;;;;;;;;;;;;;;11.01;100.00;100817.81;5036404;28;19924;-40
2023/11/15 01:13:06;;;;;;;;;;;;;;;11.07;100.00;100827.00;5036493;28;19917;-40
2023/11/15 01:15:31;;;;;;;;;;;;;;;11.07;100.00;100822.44;5050397;28;19924;-40
2023/11/15 01:17:57;;;;;;;;;;;;;;;11.04;100.00;100830.06;5034510;28;19916;-40
2023/11/15 01:20:22;;;;;;;;;;;;;;;11.05;100.00;100839.81;5034914;28;20389;-40
2023/11/15 01:22:47;;;;;;;;;;;;;;;11.07;100.00;100841.31;5034788;28;19928;-40
2023/11/15 01:25:13;;;;;;;;;;;;;;;11.08;100.00;100842.13;5044606;28;19913;-41
2023/11/15 01:27:38;;;;;;;;;;;;;;;11.11;100.00;100842.63;5039400;28;19913;-40
2023/11/15 01:30:04;;;;;;;;;;;;;;;11.08;100.00;100856.44;5054900;28;19982;-41
2023/11/15 01:32:30;;;;;;;;;;;;;;;11.07;100.00;100868.22;5056783;28;20326;-40
2023/11/15 01:34:55;;;;;;;;;;;;;;;11.08;100.00;100864.50;5040383;28;19992;-40
2023/11/15 01:37:20;;;;;;;;;;;;;;;11.10;100.00;100867.03;5053146;28;19963;-40
2023/11/15 01:39:45;;;;;;;;;;;;;;;11.10;100.00;100867.03;5036613;28;19955;-40
2023/11/15 01:42:11;;;;;;;;;;;;;;;11.11;100.00;100877.63;5044749;28;19921;-40
2023/11/15 01:44:36;;;;;;;;;;;;;;;11.12;100.00;100879.28;5035750;28;19944;-40
2023/11/15 01:47:02;;;;;;;;;;;;;;;11.10;100.00;100881.31;5051416;28;20347;-40
2023/11/15 01:49:27;;;;;;;;;;;;;;;11.08;100.00;100896.81;5054772;28;19917;-39
2023/11/15 01:51:53;;;;;;;;;;;;;;;11.01;100.00;100890.53;5039004;28;19917;-40
2023/11/15 01:54:18;;;;;;;;;;;;;;;10.98;100.00;100902.50;5058162;28;19916;-40
2023/11/15 01:56:43;;;;;;;;;;;;;;;10.96;100.00;100914.47;5054199;28;19921;-38
2023/11/15 01:59:09;;;;;;;;;;;;;;;10.93;100.00;100912.16;5057823;28;19956;-40
2023/11/15 02:01:34;;;;;;;;;;;;;;;10.93;100.00;100914.84;5048394;28;20027;-38
2023/11/15 02:03:59;;;;;;;;;;;;;;;10.94;100.00;100911.13;5047948;28;19952;-39
2023/11/15 02:06:28;;;;;;;;;;;;;;;10.93;100.00;100920.22;5056521;28;19917;-38
2023/11/15 02:08:54;;;;;;;;;;;;;;;10.91;100.00;100922.25;5050535;28;19917;-38
2023/11/15 02:11:19;;;;;;;;;;;;;;;10.87;100.00;100918.25;5035974;28;20039;-39
2023/11/15 02:13:44;;;;;;;;;;;;;;;10.86;100.00;100936.25;5053589;28;20414;-40
2023/11/15 02:16:10;;;;;;;;;;;;;;;10.87;100.00;100927.16;5042759;28;19970;-40
2023/11/15 02:18:35;;;;;;;;;;;;;;;10.86;100.00;100924.66;5052491;28;19999;-40
2023/11/15 02:21:01;;;;;;;;;;;;;;;10.84;100.00;100938.28;5046620;28;20267;-40
2023/11/15 02:23:26;;;;;;;;;;;;;;;10.82;100.00;100934.09;5054706;28;19991;-39
2023/11/15 02:25:51;;;;;;;;;;;;;;;10.84;100.00;100935.59;5055871;28;20147;-39
2023/11/15 02:28:17;;;;;;;;;;;;;;;10.82;100.00;100929.59;5049320;28;19976;-40
2023/11/15 02:30:42;;;;;;;;;;;;;;;10.83;100.00;100931.25;5044699;28;19971;-40
2023/11/15 02:33:07;;;;;;;;;;;;;;;10.87;100.00;100934.41;5052266;28;19917;-40
2023/11/15 02:35:32;;;;;;;;;;;;;;;10.87;100.00;100929.84;5052538;28;19936;-41
2023/11/15 02:37:58;;;;;;;;;;;;;;;10.91;100.00;100928.47;5043368;28;19917;-39
2023/11/15 02:40:23;;;;;;;;;;;;;;;10.94;100.00;100936.19;5054530;28;19976;-40
2023/11/15 02:42:48;;;;;;;;;;;;;;;10.96;100.00;100925.25;5058219;28;19916;-40
2023/11/15 02:45:14;;;;;;;;;;;;;;;10.98;100.00;100936.69;5047697;28;19917;-41
2023/11/15 02:47:39;;;;;;;;;;;;;;;10.98;100.00;100929.44;5046013;28;20390;-40
2023/11/15 02:50:05;;;;;;;;;;;;;;;10.95;100.00;100931.63;5052505;28;19916;-39
2023/11/15 02:52:30;;;;;;;;;;;;;;;10.97;100.00;100929.59;5051831;28;19952;-40
2023/11/15 02:54:55;;;;;;;;;;;;;;;10.99;100.00;100938.34;5044200;28;19924;-40
2023/11/15 02:57:20;;;;;;;;;;;;;;;11.00;100.00;100937.31;5052727;28;19912;-39
2023/11/15 02:59:46;;;;;;;;;;;;;;;11.02;100.00;100935.28;5048061;28;19916;-40
2023/11/15 03:02:11;;;;;;;;;;;;;;;11.01;100.00;100941.69;5048983;28;19927;-40
2023/11/15 03:04:36;;;;;;;;;;;;;;;11.02;100.00;100940.66;5044799;28;19917;-40
2023/11/15 03:07:02;;;;;;;;;;;;;;;11.00;100.00;100942.69;5045546;28;19917;-40
2023/11/15 03:09:27;;;;;;;;;;;;;;;11.01;100.00;100944.38;5046185;28;20268;-39
2023/11/15 03:11:52;;;;;;;;;;;;;;;11.04;100.00;100944.03;5051788;28;19923;-40
2023/11/15 03:14:18;;;;;;;;;;;;;;;11.03;100.00;100952.28;5052603;28;19917;-38
2023/11/15 03:16:43;;;;;;;;;;;;;;;11.03;100.00;100942.31;5047756;28;19923;-40
2023/11/15 03:19:09;;;;;;;;;;;;;;;11.05;100.00;100955.63;5050629;28;20382;-40
2023/11/15 03:21:34;;;;;;;;;;;;;;;11.04;100.00;100949.41;5051936;28;19922;-40
2023/11/15 03:23:59;;;;;;;;;;;;;;;10.96;100.00;100957.56;5051851;28;19916;-40
2023/11/15 03:26:24;;;;;;;;;;;;;;;10.97;100.00;100954.66;5042601;28;19924;-40
2023/11/15 03:28:50;;;;;;;;;;;;;;;11.00;100.00;100956.16;5052398;28;19963;-40
2023/11/15 03:31:16;;;;;;;;;;;;;;;10.93;100.00;100955.22;5050491;28;20374;-40
2023/11/15 03:33:43;;;;;;;;;;;;;;;10.93;100.00;100963.31;5050013;28;19917;-40
2023/11/15 03:36:09;;;;;;;;;;;;;;;10.89;100.00;100964.69;5026930;28;19913;-40
2023/11/15 03:38:34;;;;;;;;;;;;;;;10.88;100.00;100968.41;5043004;28;19926;-39
2023/11/15 03:41:00;;;;;;;;;;;;;;;10.87;100.00;100966.72;5042441;28;19921;-39
2023/11/15 03:43:25;;;;;;;;;;;;;;;10.88;100.00;100965.72;5055006;28;19917;-40
2023/11/15 03:45:50;;;;;;;;;;;;;;;10.90;100.00;100969.03;5056272;28;20419;-38
2023/11/15 03:48:16;;;;;;;;;;;;;;;10.90;100.00;100963.66;5056573;28;19917;-40
2023/11/15 03:50:41;;;;;;;;;;;;;;;10.94;100.00;100964.97;5039667;28;20020;-41
2023/11/15 03:53:06;;;;;;;;;;;;;;;10.97;100.00;100970.00;5036864;28;19968;-39
2023/11/15 03:55:31;;;;;;;;;;;;;;;10.97;100.00;100972.69;5054483;28;19959;-40
2023/11/15 03:57:57;;;;;;;;;;;;;;;10.97;100.00;100961.91;5037668;28;19960;-41
2023/11/15 04:00:22;;;;;;;;;;;;;;;10.95;100.00;100977.41;5043409;28;19960;-40
2023/11/15 04:02:47;;;;;;;;;;;;;;;10.98;100.00;100977.06;5043627;28;19917;-40
2023/11/15 04:05:15;;;;;;;;;;;;;;;10.97;100.00;100983.47;5036383;28;19921;-41
2023/11/15 04:07:41;;;;;;;;;;;;;;;11.02;100.00;100981.06;5052735;28;19967;-40
2023/11/15 04:10:07;;;;;;;;;;;;;;;11.01;100.00;100979.41;5055556;28;20370;-40
2023/11/15 04:12:32;;;;;;;;;;;;;;;11.05;100.00;100983.38;5049234;28;19943;-41
2023/11/15 04:14:58;;;;;;;;;;;;;;;11.05;100.00;100999.53;5050173;28;19913;-39
2023/11/15 04:17:23;;;;;;;;;;;;;;;11.05;100.00;101004.94;5018752;28;19916;-40
2023/11/15 04:19:49;;;;;;;;;;;;;;;11.01;100.00;101011.72;5049564;28;19916;-38
2023/11/15 04:22:14;;;;;;;;;;;;;;;11.02;100.00;101008.00;5040243;28;20334;-40
2023/11/15 04:24:39;;;;;;;;;;;;;;;11.01;100.00;101019.78;5036452;28;19921;-41
2023/11/15 04:27:05;;;;;;;;;;;;;;;11.02;100.00;101016.06;5048397;28;19920;-40
2023/11/15 04:29:31;;;;;;;;;;;;;;;11.02;100.00;101013.38;5055220;28;20333;-40
2023/11/15 04:31:56;;;;;;;;;;;;;;;11.01;100.00;101022.50;5047079;28;19924;-41
2023/11/15 04:34:21;;;;;;;;;;;;;;;11.01;100.00;101022.50;5055695;28;19999;-41
2023/11/15 04:36:47;;;;;;;;;;;;;;;10.98;100.00;101025.56;5054284;28;19968;-40
2023/11/15 04:39:13;;;;;;;;;;;;;;;10.98;100.00;101025.56;5053481;28;20324;-40
2023/11/15 04:41:38;;;;;;;;;;;;;;;10.98;100.00;101030.94;5046077;28;20003;-40
2023/11/15 04:44:04;;;;;;;;;;;;;;;10.97;100.00;101021.16;5047980;28;20299;-40
2023/11/15 04:46:30;;;;;;;;;;;;;;;10.97;100.00;101031.94;5042221;28;19924;-40
2023/11/15 04:48:55;;;;;;;;;;;;;;;10.96;100.00;101035.66;5037840;28;19920;-39
2023/11/15 04:51:20;;;;;;;;;;;;;;;10.95;100.00;101042.03;5049357;28;20429;-40
2023/11/15 04:53:45;;;;;;;;;;;;;;;10.94;100.00;101040.38;5042054;28;19939;-39
2023/11/15 04:56:10;;;;;;;;;;;;;;;10.89;100.00;101037.38;5034580;28;19917;-39
2023/11/15 04:58:36;;;;;;;;;;;;;;;10.87;100.00;101034.03;5041283;28;19912;-39
2023/11/15 05:01:01;;;;;;;;;;;;;;;10.85;100.00;101042.28;5055129;28;20007;-38
2023/11/15 05:03:27;;;;;;;;;;;;;;;10.83;100.00;101041.63;5046899;28;20287;-41
2023/11/15 05:05:52;;;;;;;;;;;;;;;10.83;100.00;101038.09;5036737;28;19916;-38
2023/11/15 05:08:19;;;;;;;;;;;;;;;10.83;100.00;101040.81;5043041;28;20402;-40
2023/11/15 05:10:44;;;;;;;;;;;;;;;10.84;100.00;101045.16;5031356;28;19927;-40
2023/11/15 05:13:09;;;;;;;;;;;;;;;10.80;100.00;101054.63;5034151;28;20019;-40
2023/11/15 05:15:34;;;;;;;;;;;;;;;10.82;100.00;101045.34;5039903;28;19924;-40
2023/11/15 05:17:59;;;;;;;;;;;;;;;10.84;100.00;101050.53;5057717;28;19926;-40
2023/11/15 05:20:25;;;;;;;;;;;;;;;10.86;100.00;101048.50;5026890;28;19924;-41
2023/11/15 05:22:50;;;;;;;;;;;;;;;10.88;100.00;101052.72;5049542;28;19924;-41
2023/11/15 05:25:16;;;;;;;;;;;;;;;10.95;100.00;101053.66;5051310;28;19951;-40
2023/11/15 05:27:41;;;;;;;;;;;;;;;10.95;100.00;101055.50;5053535;28;19944;-40
2023/11/15 05:30:06;;;;;;;;;;;;;;;10.99;100.00;101065.75;5053401;28;19979;-42
2023/11/15 05:32:32;;;;;;;;;;;;;;;11.01;100.00;101062.88;5053556;28;20523;-40
2023/11/15 05:34:57;;;;;;;;;;;;;;;11.00;100.00;101069.28;5053780;28;19955;-39
2023/11/15 05:37:22;;;;;;;;;;;;;;;10.97;100.00;101072.31;5049647;28;19920;-40
2023/11/15 05:39:48;;;;;;;;;;;;;;;10.96;100.00;101071.50;5048581;28;19923;-40
2023/11/15 05:42:13;;;;;;;;;;;;;;;10.89;100.00;101075.91;5048292;28;20355;-41
2023/11/15 05:44:38;;;;;;;;;;;;;;;10.86;100.00;101081.66;5051036;28;20402;-41
2023/11/15 05:47:03;;;;;;;;;;;;;;;10.81;100.00;101085.91;5051504;28;19920;-40
2023/11/15 05:49:30;;;;;;;;;;;;;;;10.74;100.00;101083.06;5050114;28;19931;-40
2023/11/15 05:51:56;;;;;;;;;;;;;;;10.73;100.00;101090.31;5048811;28;20294;-39
2023/11/15 05:54:21;;;;;;;;;;;;;;;10.75;100.00;101079.38;5050261;28;19932;-40
2023/11/15 05:56:46;;;;;;;;;;;;;;;10.75;100.00;101085.59;5040957;28;19967;-40
2023/11/15 05:59:12;;;;;;;;;;;;;;;10.76;100.00;101084.56;5038869;28;19939;-41
2023/11/15 06:01:37;;;;;;;;;;;;;;;10.78;100.00;101084.41;5037411;28;20335;-40
2023/11/15 06:04:02;;;;;;;;;;;;;;;10.79;100.00;101075.28;5060653;28;19912;-39
2023/11/15 06:06:27;;;;;;;;;;;;;;;10.79;100.00;101088.75;5059339;28;20422;-42
2023/11/15 06:08:53;;;;;;;;;;;;;;;10.77;100.00;101083.56;5060715;28;19976;-40
2023/11/15 06:11:18;;;;;;;;;;;;;;;10.76;100.00;101068.41;5057747;28;19920;-40
2023/11/15 06:13:43;;;;;;;;;;;;;;;10.73;100.00;101081.41;5055068;28;19912;-39
2023/11/15 06:16:08;;;;;;;;;;;;;;;10.76;100.00;101081.03;5049680;28;19916;-41
2023/11/15 06:18:35;;;;;;;;;;;;;;;10.73;100.00;101076.84;5034025;28;20458;-40
2023/11/15 06:21:00;;;;;;;;;;;;;;;10.74;100.00;101083.94;5034535;28;19948;-40
2023/11/15 06:23:25;;;;;;;;;;;;;;;10.73;100.00;101082.22;5034609;28;19971;-40
2023/11/15 06:25:51;;;;;;;;;;;;;;;10.75;100.00;101096.38;5034746;28;19916;-40
2023/11/15 06:28:19;;;;;;;;;;;;;;;10.73;100.00;101097.56;5034851;28;19924;-40
2023/11/15 06:30:48;;;;;;;;;;;;;;;10.76;100.00;101102.59;5037388;28;20008;-40
2023/11/15 06:33:14;;;;;;;;;;;;;;;10.76;100.00;101103.41;5037349;28;19996;-40
2023/11/15 06:35:39;;;;;;;;;;;;;;;10.78;100.00;101111.31;5037502;28;19994;-38
2023/11/15 06:38:05;;;;;;;;;;;;;;;10.77;100.00;101113.19;5038026;28;19943;-40
2023/11/15 06:40:30;;;;;;;;;;;;;;;10.79;100.00;101112.16;5034870;28;19996;-42
2023/11/15 06:42:56;;;;;;;;;;;;;;;10.77;100.00;101118.56;5033924;28;19999;-41
2023/11/15 06:45:22;;;;;;;;;;;;;;;10.73;100.00;101116.41;5034698;28;20310;-40
2023/11/15 06:47:49;;;;;;;;;;;;;;;10.71;100.00;101116.56;5036244;28;19913;-40
2023/11/15 06:50:15;;;;;;;;;;;;;;;10.72;100.00;101123.66;5038626;28;19994;-42
2023/11/15 06:52:40;;;;;;;;;;;;;;;10.72;100.00;101118.25;5036215;28;19967;-39
2023/11/15 06:55:11;;;;;;;;;;;;;;;10.73;100.00;101124.47;5034517;28;20582;-41
2023/11/15 06:57:37;;;;;;;;;;;;;;;10.69;100.00;101129.38;5032827;28;19921;-38
2023/11/15 07:00:05;;;;;;;;;;;;;;;10.70;100.00;101140.97;5034025;28;19944;-40
2023/11/15 07:02:30;;;;;;;;;;;;;;;10.71;100.00;101142.66;5035621;28;19976;-40
2023/11/15 07:04:56;;;;;;;;;;;;;;;10.70;100.00;101133.75;5020275;28;19948;-42
2023/11/15 07:07:21;;;;;;;;;;;;;;;10.70;100.00;101135.59;5040625;28;19924;-40
2023/11/15 07:09:46;;;;;;;;;;;;;;;10.66;100.00;101135.09;5040283;28;19944;-41
2023/11/15 07:12:11;;;;;;;;;;;;;;;10.69;100.00;101129.38;5037283;28;19913;-40
2023/11/15 07:14:36;;;;;;;;;;;;;;;10.68;100.00;101132.25;5033608;28;19920;-42
2023/11/15 07:17:02;;;;;;;;;;;;;;;10.62;100.00;101152.63;5044033;28;20058;-40
2023/11/15 07:19:32;;;;;;;;;;;;;;;10.64;100.00;101152.47;5058005;28;19928;-40
2023/11/15 07:21:58;;;;;;;;;;;;;;;10.65;100.00;101154.97;5061540;28;19965;-40
2023/11/15 07:24:23;;;;;;;;;;;;;;;10.65;100.00;101160.34;5059004;28;19959;-40
2023/11/15 07:26:48;;;;;;;;;;;;;;;10.66;100.00;101156.63;5042257;28;19920;-39
2023/11/15 07:29:19;;;;;;;;;;;;;;;10.74;100.00;101164.69;5058350;28;19916;-41
2023/11/15 07:31:54;;;;;;;;;;;;;;;10.83;100.00;101161.97;5056452;28;19918;-40
2023/11/15 07:34:22;;;;;;;;;;;;;;;10.87;100.00;101163.28;5055932;28;19917;-40
2023/11/15 07:36:48;;;;;;;;;;;;;;;10.90;100.00;101149.44;5054808;28;19913;-40
2023/11/15 07:39:13;;;;;;;;;;;;;;;10.93;100.00;101165.28;5053539;28;19917;-39
2023/11/15 07:41:39;;;;;;;;;;;;;;;10.94;100.00;101169.63;5052764;28;20017;-41
2023/11/15 07:44:05;;;;;;;;;;;;;;;10.94;100.00;101175.84;5035722;28;19917;-40
2023/11/15 07:46:30;;;;;;;;;;;;;;;10.96;100.00;101173.00;5060957;28;20389;-41
2023/11/15 07:48:58;;;;;;;;;;;;;;;10.96;100.00;101183.78;5060843;28;19913;-41
2023/11/15 07:51:23;;;;;;;;;;;;;;;10.96;100.00;101189.16;5061204;28;19957;-41
2023/11/15 07:53:49;;;;;;;;;;;;;;;11.00;100.00;101190.47;5058132;28;20283;-40
2023/11/15 07:56:15;;;;;;;;;;;;;;;11.07;100.00;101196.00;5055998;28;20325;-40
2023/11/15 07:58:40;;;;;;;;;;;;;;;11.06;100.00;101197.88;5056728;28;19913;-40
2023/11/15 08:01:08;;;;;;;;;;;;;;;11.09;100.00;101202.88;5057018;28;19919;-40
2023/11/15 08:03:33;;;;;;;;;;;;;;;11.12;100.00;101205.22;5054739;28;19920;-39
2023/11/15 08:05:58;;;;;;;;;;;;;;;11.17;100.00;101212.78;5053296;28;19913;-40
2023/11/15 08:08:24;;;;;;;;;;;;;;;11.20;100.00;101221.34;5053000;28;19920;-40
2023/11/15 08:10:50;;;;;;;;;;;;;;;11.16;100.00;101227.25;5053244;28;19916;-39
2023/11/15 08:13:19;;;;;;;;;;;;;;;11.15;100.00;101220.19;5035164;28;19913;-39
2023/11/15 08:15:44;;;;;;;;;;;;;;;11.17;100.00;101224.41;5052667;28;20008;-40
2023/11/15 08:18:10;;;;;;;;;;;;;;;11.23;100.00;101227.41;5053572;28;19955;-39
2023/11/15 08:20:35;;;;;;;;;;;;;;;11.28;100.00;101230.41;5051792;28;20007;-41
2023/11/15 08:23:01;;;;;;;;;;;;;;;11.35;100.00;101226.00;5053242;28;19920;-39
2023/11/15 08:25:27;;;;;;;;;;;;;;;11.41;100.00;101230.66;5052506;28;19920;-40
2023/11/15 08:27:52;;;;;;;;;;;;;;;11.35;100.00;101231.38;5054994;28;20287;-40
2023/11/15 08:30:17;;;;;;;;;;;;;;;11.41;100.00;101228.81;5057325;28;19913;-39
2023/11/15 08:32:46;;;;;;;;;;;;;;;11.47;100.00;101224.56;5064428;28;19920;-41
2023/11/15 08:35:11;;;;;;;;;;;;;;;11.47;100.00;101237.19;5062606;28;19916;-40
2023/11/15 08:37:37;;;;;;;;;;;;;;;11.49;100.00;101236.00;5055671;28;19919;-40
2023/11/15 08:40:03;;;;;;;;;;;;;;;11.46;100.00;101238.22;5037946;28;20337;-38
2023/11/15 08:42:28;;;;;;;;;;;;;;;11.48;100.00;101242.41;5056097;28;19913;-40
2023/11/15 08:44:53;;;;;;;;;;;;;;;11.48;100.00;101237.03;5055561;28;19913;-40
2023/11/15 08:47:20;;;;;;;;;;;;;;;11.42;100.00;101246.63;5056062;28;19967;-40
2023/11/15 08:49:45;;;;;;;;;;;;;;;11.42;100.00;101237.72;5056056;28;19917;-40
2023/11/15 08:52:10;;;;;;;;;;;;;;;11.40;100.00;101247.84;5055931;28;19978;-40
2023/11/15 08:54:37;;;;;;;;;;;;;;;11.42;100.00;101248.50;5055600;28;19916;-40
2023/11/15 08:57:02;;;;;;;;;;;;;;;11.42;100.00;101251.19;5055673;28;19948;-40
2023/11/15 08:59:29;;;;;;;;;;;;;;;11.43;100.00;101260.97;5055408;28;20394;-39
2023/11/15 09:01:54;;;;;;;;;;;;;;;11.46;100.00;101257.91;5056069;28;19913;-39
2023/11/15 09:04:20;;;;;;;;;;;;;;;11.43;100.00;101256.41;5054857;28;20256;-39
2023/11/15 09:06:46;;;;;;;;;;;;;;;11.39;100.00;101259.63;5055420;28;20287;-41
2023/11/15 09:09:14;;;;;;;;;;;;;;;11.35;100.00;101263.72;5055395;28;19976;-40
2023/11/15 09:11:41;;;;;;;;;;;;;;;11.30;100.00;101261.56;5055519;28;19912;-40
2023/11/15 09:14:08;;;;;;;;;;;;;;;11.29;100.00;101262.53;5055461;28;19913;-40
2023/11/15 09:16:34;;;;;;;;;;;;;;;11.24;100.00;101262.22;5055107;28;19917;-41
2023/11/15 09:19:01;;;;;;;;;;;;;;;11.24;100.00;101267.63;5055823;28;19974;-40
2023/11/15 09:21:26;;;;;;;;;;;;;;;11.32;100.00;101259.53;5057873;28;20341;-40
2023/11/15 09:23:52;;;;;;;;;;;;;;;11.37;100.00;101261.66;5055858;28;19944;-40
2023/11/15 09:26:19;;;;;;;;;;;;;;;11.37;100.00;101261.66;5056035;28;20275;-40
2023/11/15 09:28:44;;;;;;;;;;;;;;;11.47;100.00;101267.69;5062780;28;19913;-39
2023/11/15 09:31:12;;;;;;;;;;;;;;;11.55;100.00;101264.94;5061899;28;19909;-40
2023/11/15 09:33:37;;;;;;;;;;;;;;;11.59;100.00;101266.25;5063668;28;19958;-40
2023/11/15 09:36:06;;;;;;;;;;;;;;;11.65;100.00;101265.53;5056218;28;19916;-40
2023/11/15 09:38:32;;;;;;;;;;;;;;;11.69;100.00;101270.56;5054686;28;20385;-39
2023/11/15 09:41:00;;;;;;;;;;;;;;;11.73;100.00;101259.25;5054360;28;19912;-39
2023/11/15 09:43:25;;;;;;;;;;;;;;;11.78;100.00;101258.72;5054460;28;19927;-41
2023/11/15 09:45:50;;;;;;;;;;;;;;;11.85;100.00;101260.53;5053768;28;19912;-40
2023/11/15 09:48:15;;;;;;;;;;;;;;;12.00;100.00;101257.91;5054620;28;20268;-40
2023/11/15 09:50:41;;;;;;;;;;;;;;;12.12;100.00;101254.78;5056434;28;19924;-40
2023/11/15 09:53:07;;;;;;;;;;;;;;;12.28;100.00;101255.47;5037443;28;20387;-39
2023/11/15 09:55:36;;;;;;;;;;;;;;;12.54;100.00;101256.06;5054785;28;19974;-41
2023/11/15 09:58:01;;;;;;;;;;;;;;;12.89;100.00;101260.72;5054409;28;19968;-41
2023/11/15 10:00:29;;;;;;;;;;;;;;;13.06;100.00;101253.28;5054526;28;19956;-39
2023/11/15 10:02:55;;;;;;;;;;;;;;;13.02;100.00;101253.84;5054479;28;19924;-39
2023/11/15 10:05:26;;;;;;;;;;;;;;;12.98;100.00;101255.22;5054419;28;19913;-40
2023/11/15 10:08:06;;;;;;;;;;;;;;;12.96;100.00;101258.97;5046101;28;19932;-38
2023/11/15 10:10:31;;;;;;;;;;;;;;;12.84;100.00;101265.84;5053819;28;19924;-39
2023/11/15 10:12:57;;;;;;;;;;;;;;;12.82;100.00;101269.75;5054041;28;19913;-40
2023/11/15 10:15:47;;;;;;;;;;;;;;;12.88;100.00;101264.47;5054260;28;19980;-40
2023/11/15 10:18:27;;;;;;;;;;;;;;;12.81;100.00;101271.63;5033877;28;19916;-39
2023/11/15 10:21:13;;;;;;;;;;;;;;;12.76;100.00;101274.03;5033244;28;19917;-39
2023/11/15 10:23:39;;;;;;;;;;;;;;;12.66;100.00;101274.31;5034121;28;19944;-40
2023/11/15 10:26:05;;;;;;;;;;;;;;;12.52;100.00;101283.25;5033358;28;20291;-40
2023/11/15 10:28:39;;;;;;;;;;;;;;;12.68;100.00;101284.94;5034262;28;19967;-39
2023/11/15 10:31:13;;;;;;;;;;;;;;;12.99;100.00;101287.47;5032873;28;19920;-40
2023/11/15 10:33:45;;;;;;;;;;;;;;;13.21;100.00;101288.38;5033995;28;19913;-40
2023/11/15 10:36:17;;;;;;;;;;;;;;;13.25;100.00;101289.69;5016831;28;19924;-41
2023/11/15 10:38:44;;;;;;;;;;;;;;;13.05;100.00;101278.59;5034325;28;19920;-39
2023/11/15 10:41:10;;;;;;;;;;;;;;;13.21;100.00;101277.56;5033585;28;20003;-40
2023/11/15 10:43:35;;;;;;;;;;;;;;;13.43;100.00;101272.22;5015803;28;20022;-39
2023/11/15 10:46:02;;;;;;;;;;;;;;;13.58;100.00;101270.34;5033242;28;19913;-41
2023/11/15 10:48:27;;;;;;;;;;;;;;;13.71;100.00;101266.94;5016535;28;19916;-40
2023/11/15 10:50:55;;;;;;;;;;;;;;;13.60;100.00;101271.81;5015189;28;19913;-39
2023/11/15 10:53:20;;;;;;;;;;;;;;;13.50;100.00;101273.16;5015622;28;20253;-40
2023/11/15 10:55:45;;;;;;;;;;;;;;;13.55;100.00;101270.72;5015622;28;19963;-40
2023/11/15 10:58:11;;;;;;;;;;;;;;;13.44;100.00;101271.22;5012739;28;19945;-39
2023/11/15 11:00:40;;;;;;;;;;;;;;;13.22;100.00;101268.44;5033624;28;20364;-40
2023/11/15 11:03:05;;;;;;;;;;;;;;;13.09;100.00;101271.81;5033155;28;20004;-41
2023/11/15 11:05:44;;;;;;;;;;;;;;;12.95;100.00;101272.63;5033643;28;19979;-41
2023/11/15 11:08:14;;;;;;;;;;;;;;;12.87;100.00;101270.88;5033822;28;19916;-40
2023/11/15 11:10:42;;;;;;;;;;;;;;;12.86;100.00;101269.22;5033473;28;19913;-40
2023/11/15 11:13:23;;;;;;;;;;;;;;;12.84;100.00;101276.66;5016479;28;19916;-40
2023/11/15 11:15:49;;;;;;;;;;;;;;;12.66;100.00;101268.91;5034876;28;19936;-41
2023/11/15 11:18:18;;;;;;;;;;;;;;;12.52;100.00;101273.28;5035723;28;19936;-40
2023/11/15 11:21:02;;;;;;;;;;;;;;;12.38;100.00;101282.19;5033467;28;19913;-40
2023/11/15 11:23:29;;;;;;;;;;;;;;;12.47;100.00;101283.78;5033249;28;19913;-40
2023/11/15 11:25:55;;;;;;;;;;;;;;;12.51;100.00;101281.59;5035715;28;19920;-40
2023/11/15 11:28:21;;;;;;;;;;;;;;;12.87;100.00;101268.16;5018131;28;19917;-40
2023/11/15 11:31:05;;;;;;;;;;;;;;;13.33;100.00;101265.28;5037451;28;19912;-39
2023/11/15 11:33:30;;;;;;;;;;;;;;;13.93;100.00;101274.03;5016936;28;19914;-40
2023/11/15 11:35:55;;;;;;;;;;;;;;;14.48;100.00;101268.84;5016509;28;20300;-39
2023/11/15 11:38:44;;;;;;;;;;;;;;;14.97;100.00;101262.53;5032094;28;20423;-41
2023/11/15 11:41:10;;;;;;;;;;;;;;;15.23;100.00;101261.81;5032015;28;20261;-40
2023/11/15 11:43:36;;;;;;;;;;;;;;;15.57;100.00;101268.19;5027342;28;19921;-40
2023/11/15 11:46:11;;;;;;;;;;;;;;;15.79;100.00;101267.00;5029454;28;20441;-40
2023/11/15 11:48:37;;;;;;;;;;;;;;;15.57;100.00;101269.03;5010915;28;19964;-40
2023/11/15 11:51:07;;;;;;;;;;;;;;;15.61;100.00;101263.19;5030461;28;19975;-39
2023/11/15 11:53:38;;;;;;;;;;;;;;;15.65;100.00;101261.75;5004206;28;20379;-40
2023/11/15 11:56:07;;;;;;;;;;;;;;;15.07;100.00;101262.16;5029313;28;19948;-40
2023/11/15 11:58:33;;;;;;;;;;;;;;;14.88;100.00;101255.63;5026083;28;19928;-40
2023/11/15 12:01:08;;;;;;;;;;;;;;;14.60;100.00;101267.31;5022869;28;19921;-39
2023/11/15 12:03:35;;;;;;;;;;;;;;;14.32;100.00;101258.31;5027671;28;19913;-41
2023/11/15 12:06:07;;;;;;;;;;;;;;;14.04;100.00;101256.44;5027542;28;19951;-40
2023/11/15 12:08:32;;;;;;;;;;;;;;;14.00;100.00;101265.97;5034355;28;19921;-41
2023/11/15 12:10:58;;;;;;;;;;;;;;;13.90;100.00;101268.16;5035193;28;19928;-41
2023/11/15 12:13:23;;;;;;;;;;;;;;;13.86;100.00;101265.00;5000878;28;19924;-40
2023/11/15 12:15:50;;;;;;;;;;;;;;;13.75;100.00;101255.53;5033292;28;20333;-40
2023/11/15 12:18:16;;;;;;;;;;;;;;;13.69;100.00;101263.56;5051437;28;19920;-40
2023/11/15 12:20:41;;;;;;;;;;;;;;;13.63;100.00;101272.47;5055616;28;20268;-40
2023/11/15 12:23:10;;;;;;;;;;;;;;;13.49;100.00;101274.19;5054524;28;20486;-41